Time;durP1;ratioP1;P1;durP2;ratioP2;P2;SDS_P1;SDS_P2;PMS_P1;PMS_P2;Temp;Humidity;BMP_temperature;BMP_pressure;BME280_temperature;BME280_humidity;BME280_pressure;Samples;Min_cycle;Max_cycle;Signal;HPM_P1;HPM_P2
2023/12/14 00:01:45;;;;;;;0.60;0.30;;;5.50;99.90;;;;;;5067488;28;20186;-71
2023/12/14 00:04:11;;;;;;;0.60;0.30;;;5.50;99.90;;;;;;5068692;28;20206;-71
2023/12/14 00:06:37;;;;;;;1.33;0.50;;;5.50;99.90;;;;;;5068602;28;20954;-72
2023/12/14 00:09:03;;;;;;;1.67;0.57;;;5.60;99.90;;;;;;5068663;28;20462;-72
2023/12/14 00:11:28;;;;;;;1.90;0.40;;;5.60;99.90;;;;;;5068641;28;20190;-72
2023/12/14 00:13:54;;;;;;;0.90;0.50;;;5.60;99.90;;;;;;5068639;28;20187;-72
2023/12/14 00:16:19;;;;;;;0.80;0.40;;;5.60;99.90;;;;;;5067202;28;20740;-72
2023/12/14 00:18:45;;;;;;;2.20;0.50;;;5.60;99.90;;;;;;5068817;28;20650;-72
2023/12/14 00:21:10;;;;;;;2.40;0.60;;;5.60;99.90;;;;;;5067220;28;20198;-71
2023/12/14 00:23:36;;;;;;;1.63;0.60;;;5.70;99.90;;;;;;5068927;28;20201;-72
2023/12/14 00:26:02;;;;;;;1.20;0.43;;;5.70;99.90;;;;;;5067252;28;20218;-72
2023/12/14 00:28:27;;;;;;;0.60;0.40;;;5.80;99.90;;;;;;5068893;28;20225;-72
2023/12/14 00:30:53;;;;;;;0.70;0.40;;;5.70;99.90;;;;;;5068979;28;20738;-72
2023/12/14 00:33:19;;;;;;;0.70;0.50;;;5.80;99.90;;;;;;5069511;28;20186;-72
2023/12/14 00:35:44;;;;;;;0.77;0.40;;;5.80;99.90;;;;;;5069160;28;20653;-72
2023/12/14 00:38:10;;;;;;;0.80;0.40;;;5.80;99.90;;;;;;5050470;28;20202;-71
2023/12/14 00:40:35;;;;;;;0.87;0.47;;;5.90;99.90;;;;;;5068566;28;20183;-72
2023/12/14 00:43:01;;;;;;;0.73;0.43;;;5.90;99.90;;;;;;5067323;28;20186;-71
2023/12/14 00:45:26;;;;;;;0.70;0.40;;;5.90;99.90;;;;;;5067130;28;20221;-71
2023/12/14 00:47:52;;;;;;;2.03;0.60;;;5.90;99.90;;;;;;5066913;28;20209;-71
2023/12/14 00:50:17;;;;;;;0.70;0.50;;;5.90;99.90;;;;;;5066918;28;20644;-72
2023/12/14 00:52:43;;;;;;;1.10;0.70;;;5.90;99.90;;;;;;5068595;28;20218;-72
2023/12/14 00:55:09;;;;;;;0.70;0.50;;;5.90;99.90;;;;;;5068204;28;20206;-72
2023/12/14 00:57:34;;;;;;;1.27;0.70;;;6.00;99.90;;;;;;5067546;28;20692;-72
2023/12/14 01:00:00;;;;;;;1.93;0.80;;;6.00;99.90;;;;;;5068288;28;20239;-72
2023/12/14 01:02:25;;;;;;;2.20;0.57;;;6.00;99.90;;;;;;5067000;28;20607;-72
2023/12/14 01:04:51;;;;;;;2.73;0.70;;;6.00;99.90;;;;;;5068303;28;20264;-72
2023/12/14 01:07:16;;;;;;;5.33;0.80;;;6.00;99.90;;;;;;5066827;28;20293;-72
2023/12/14 01:09:42;;;;;;;1.27;0.80;;;6.00;99.90;;;;;;5068135;28;20179;-73
2023/12/14 01:12:08;;;;;;;0.83;0.77;;;6.00;99.90;;;;;;5066938;28;20175;-72
2023/12/14 01:14:34;;;;;;;1.00;0.73;;;6.00;99.90;;;;;;5068132;28;20179;-72
2023/12/14 01:17:00;;;;;;;1.00;0.60;;;6.00;99.90;;;;;;5068097;28;20202;-72
2023/12/14 01:19:25;;;;;;;4.53;0.60;;;6.00;99.90;;;;;;5068257;28;20417;-72
2023/12/14 01:21:51;;;;;;;0.80;0.60;;;6.00;99.90;;;;;;5068108;28;20198;-72
2023/12/14 01:24:17;;;;;;;0.80;0.63;;;6.00;99.90;;;;;;5067882;28;20191;-71
2023/12/14 01:26:43;;;;;;;1.20;0.80;;;6.00;99.90;;;;;;5066570;28;20441;-71
2023/12/14 01:29:08;;;;;;;1.40;0.60;;;6.00;99.90;;;;;;5070125;28;20724;-72
2023/12/14 01:31:34;;;;;;;1.07;0.80;;;6.00;99.90;;;;;;5071899;28;20183;-72
2023/12/14 01:33:59;;;;;;;0.80;0.60;;;6.00;99.90;;;;;;5071782;28;20262;-72
2023/12/14 01:36:26;;;;;;;1.03;0.70;;;6.00;99.90;;;;;;5070122;28;20285;-72
2023/12/14 01:38:52;;;;;;;1.20;0.97;;;6.00;99.90;;;;;;5070500;28;20176;-72
2023/12/14 01:41:18;;;;;;;2.20;0.70;;;6.00;99.90;;;;;;5071513;28;20431;-72
2023/12/14 01:43:44;;;;;;;2.03;0.80;;;6.00;99.90;;;;;;5070144;28;20433;-72
2023/12/14 01:46:10;;;;;;;1.73;0.60;;;5.90;99.90;;;;;;5071701;28;20560;-72
2023/12/14 01:48:35;;;;;;;2.90;0.80;;;6.00;99.90;;;;;;5071758;28;20412;-72
2023/12/14 01:51:01;;;;;;;3.23;1.00;;;6.00;99.90;;;;;;5071760;28;20785;-72
2023/12/14 01:53:27;;;;;;;4.90;0.60;;;6.00;99.90;;;;;;5071461;28;20191;-73
2023/12/14 01:55:52;;;;;;;0.90;0.70;;;6.00;99.90;;;;;;5053405;28;20202;-72
2023/12/14 01:58:18;;;;;;;2.00;0.60;;;6.00;99.90;;;;;;5071585;28;20207;-72
2023/12/14 02:00:52;;;;;;;2.83;0.80;;;6.10;99.90;;;;;;5071544;28;20183;-72
2023/12/14 02:03:18;;;;;;;1.20;0.80;;;6.10;99.90;;;;;;5071665;28;20179;-72
2023/12/14 02:05:44;;;;;;;3.83;0.73;;;6.10;99.90;;;;;;5070724;28;20507;-72
2023/12/14 02:08:09;;;;;;;2.80;0.70;;;6.10;99.90;;;;;;5071900;28;20441;-72
2023/12/14 02:10:35;;;;;;;1.27;0.60;;;6.10;99.90;;;;;;5071883;28;20248;-73
2023/12/14 02:13:04;;;;;;;2.77;0.73;;;6.10;99.90;;;;;;5071947;28;20702;-72
2023/12/14 02:15:30;;;;;;;2.17;0.63;;;6.10;99.90;;;;;;5071610;28;20266;-72
2023/12/14 02:17:55;;;;;;;1.97;0.50;;;6.10;99.90;;;;;;5071475;28;20520;-73
2023/12/14 02:20:21;;;;;;;1.27;0.60;;;6.10;99.90;;;;;;5070132;28;20277;-71
2023/12/14 02:22:54;;;;;;;2.67;0.60;;;6.10;99.90;;;;;;5071628;28;20187;-72
2023/12/14 02:25:20;;;;;;;1.00;0.70;;;6.20;99.90;;;;;;5071618;28;20216;-72
2023/12/14 02:27:47;;;;;;;1.10;0.80;;;6.20;99.90;;;;;;5071557;28;20457;-72
2023/12/14 02:30:13;;;;;;;1.83;1.13;;;6.20;99.90;;;;;;5071575;28;20417;-72
2023/12/14 02:32:39;;;;;;;1.53;1.03;;;6.20;99.90;;;;;;5070129;28;20433;-72
2023/12/14 02:35:06;;;;;;;1.10;1.00;;;6.30;99.90;;;;;;5071565;28;20417;-72
2023/12/14 02:37:33;;;;;;;1.47;1.30;;;6.30;99.90;;;;;;5071362;28;20433;-71
2023/12/14 02:40:00;;;;;;;1.40;1.30;;;6.30;99.90;;;;;;5053465;28;20471;-71
2023/12/14 02:42:26;;;;;;;4.07;1.20;;;6.20;99.90;;;;;;5071433;28;21006;-73
2023/12/14 02:44:53;;;;;;;1.30;1.20;;;6.20;99.90;;;;;;5071342;28;20464;-72
2023/12/14 02:47:18;;;;;;;1.40;1.13;;;6.20;99.90;;;;;;5071305;28;20757;-72
2023/12/14 02:49:44;;;;;;;1.30;1.10;;;6.20;99.90;;;;;;5071344;28;20504;-72
2023/12/14 02:52:10;;;;;;;2.50;1.13;;;6.20;99.90;;;;;;5070952;28;20211;-72
2023/12/14 02:54:38;;;;;;;3.77;0.90;;;6.10;99.90;;;;;;5069168;28;20285;-72
2023/12/14 02:57:04;;;;;;;2.10;1.27;;;6.10;99.90;;;;;;5070509;28;20207;-72
2023/12/14 02:59:29;;;;;;;1.37;1.27;;;6.10;99.90;;;;;;5070757;28;20418;-72
2023/12/14 03:01:55;;;;;;;1.83;1.20;;;6.10;99.90;;;;;;5070770;28;20179;-73
2023/12/14 03:04:21;;;;;;;1.50;1.00;;;6.10;99.90;;;;;;5069274;28;20634;-73
2023/12/14 03:06:46;;;;;;;1.57;1.00;;;6.00;99.90;;;;;;5069263;28;20203;-72
2023/12/14 03:09:12;;;;;;;1.50;1.10;;;6.00;99.90;;;;;;5052730;28;20536;-71
2023/12/14 03:11:37;;;;;;;2.23;0.90;;;6.00;99.90;;;;;;5070797;28;20176;-71
2023/12/14 03:14:03;;;;;;;2.47;1.30;;;5.90;99.90;;;;;;5069414;28;20836;-71
2023/12/14 03:16:29;;;;;;;2.70;1.07;;;6.00;99.90;;;;;;5070911;28;20203;-72
2023/12/14 03:18:56;;;;;;;1.40;1.20;;;6.00;99.90;;;;;;5069919;28;20183;-72
2023/12/14 03:21:22;;;;;;;1.20;1.10;;;5.90;99.90;;;;;;5070550;28;20406;-71
2023/12/14 03:23:48;;;;;;;1.07;0.97;;;5.90;99.90;;;;;;5069218;28;20835;-71
2023/12/14 03:26:13;;;;;;;1.10;1.00;;;5.90;99.90;;;;;;5070407;28;20469;-72
2023/12/14 03:28:39;;;;;;;1.00;0.90;;;5.90;99.90;;;;;;5070586;28;20649;-72
2023/12/14 03:31:05;;;;;;;1.33;1.20;;;5.90;99.90;;;;;;5069039;28;20182;-72
2023/12/14 03:33:30;;;;;;;2.70;1.20;;;6.00;99.90;;;;;;5069821;28;20228;-72
2023/12/14 03:35:56;;;;;;;1.73;1.10;;;6.10;99.90;;;;;;5069631;28;20765;-71
2023/12/14 03:38:22;;;;;;;1.50;1.40;;;6.10;99.90;;;;;;5069729;28;20175;-72
2023/12/14 03:40:47;;;;;;;1.90;1.17;;;6.10;99.90;;;;;;5069916;28;20190;-72
2023/12/14 03:43:13;;;;;;;1.23;1.10;;;6.10;99.90;;;;;;5069524;28;20417;-72
2023/12/14 03:45:38;;;;;;;1.20;1.10;;;6.20;99.90;;;;;;5069551;28;20563;-72
2023/12/14 03:48:04;;;;;;;1.30;1.10;;;6.20;99.90;;;;;;5069441;28;20260;-71
2023/12/14 03:50:30;;;;;;;0.93;0.80;;;6.20;99.90;;;;;;5069016;28;20175;-70
2023/12/14 03:52:55;;;;;;;1.40;1.00;;;6.20;99.90;;;;;;5067913;28;20280;-71
2023/12/14 03:55:21;;;;;;;1.43;0.80;;;6.20;99.90;;;;;;5067905;28;20203;-72
2023/12/14 03:57:47;;;;;;;1.20;1.10;;;6.20;99.90;;;;;;5067747;28;20588;-72
2023/12/14 04:00:13;;;;;;;1.53;1.03;;;6.20;99.90;;;;;;5069203;28;20213;-71
2023/12/14 04:02:40;;;;;;;1.27;1.00;;;6.30;99.90;;;;;;5069127;28;20183;-72
2023/12/14 04:05:08;;;;;;;1.70;1.60;;;6.30;99.90;;;;;;5068838;28;20864;-72
2023/12/14 04:07:41;;;;;;;3.17;1.13;;;6.30;99.90;;;;;;5068901;28;20512;-72
2023/12/14 04:10:10;;;;;;;1.30;1.00;;;6.30;99.90;;;;;;5068952;28;20414;-71
2023/12/14 04:12:37;;;;;;;1.20;1.10;;;6.30;99.90;;;;;;5067316;28;20559;-72
2023/12/14 04:15:04;;;;;;;0.90;0.90;;;6.20;99.90;;;;;;5068870;28;20414;-71
2023/12/14 04:17:31;;;;;;;1.10;0.83;;;6.20;99.90;;;;;;5050833;28;20449;-72
2023/12/14 04:19:57;;;;;;;1.87;1.20;;;6.20;99.90;;;;;;5069087;28;20965;-72
2023/12/14 04:22:22;;;;;;;1.60;1.10;;;6.20;99.90;;;;;;5068852;28;20425;-72
2023/12/14 04:24:48;;;;;;;2.17;0.70;;;6.20;99.90;;;;;;5067487;28;20989;-72
2023/12/14 04:27:15;;;;;;;3.43;1.10;;;6.30;99.90;;;;;;5067695;28;20209;-72
2023/12/14 04:29:41;;;;;;;0.90;0.50;;;6.30;99.90;;;;;;5069026;28;20171;-72
2023/12/14 04:32:06;;;;;;;3.53;0.80;;;6.20;99.90;;;;;;5067378;28;20447;-72
2023/12/14 04:34:32;;;;;;;0.80;0.70;;;6.40;99.90;;;;;;5068875;28;20460;-71
2023/12/14 04:36:57;;;;;;;0.80;0.70;;;6.40;99.90;;;;;;5068774;28;20689;-71
2023/12/14 04:39:26;;;;;;;2.07;0.90;;;6.40;99.90;;;;;;5051167;28;20179;-72
2023/12/14 04:41:53;;;;;;;1.63;0.83;;;6.40;99.90;;;;;;5068851;28;20182;-72
2023/12/14 04:44:19;;;;;;;0.77;0.77;;;6.40;99.90;;;;;;5068909;28;20825;-72
2023/12/14 04:46:44;;;;;;;1.20;1.10;;;6.40;99.90;;;;;;5068699;28;20477;-71
2023/12/14 04:49:10;;;;;;;1.83;1.10;;;6.40;99.90;;;;;;5067484;28;20535;-72
2023/12/14 04:51:36;;;;;;;1.80;1.23;;;6.40;99.90;;;;;;5068926;28;20224;-72
2023/12/14 04:54:02;;;;;;;0.90;0.67;;;6.40;99.90;;;;;;5068756;28;20417;-72
2023/12/14 04:56:27;;;;;;;2.33;0.77;;;6.40;99.90;;;;;;5068682;28;20754;-70
2023/12/14 04:58:53;;;;;;;1.80;1.23;;;6.40;99.90;;;;;;5067364;28;20977;-72
2023/12/14 05:01:19;;;;;;;4.43;1.20;;;6.40;99.90;;;;;;5067283;28;20229;-72
2023/12/14 05:03:44;;;;;;;1.20;1.10;;;6.40;99.90;;;;;;5071969;28;20183;-72
2023/12/14 05:06:10;;;;;;;1.20;1.10;;;6.40;99.90;;;;;;5071024;28;20210;-73
2023/12/14 05:08:35;;;;;;;3.40;1.10;;;6.30;99.90;;;;;;5070676;28;20183;-71
2023/12/14 05:11:01;;;;;;;1.10;1.00;;;6.30;99.90;;;;;;5071474;28;20378;-72
2023/12/14 05:13:26;;;;;;;2.00;1.00;;;6.30;99.90;;;;;;5071270;28;20187;-71
2023/12/14 05:15:52;;;;;;;1.60;1.37;;;6.40;99.90;;;;;;5071082;28;20190;-73
2023/12/14 05:18:18;;;;;;;1.73;1.20;;;6.40;99.90;;;;;;5071026;28;20264;-72
2023/12/14 05:20:45;;;;;;;1.63;1.53;;;6.30;99.90;;;;;;5071100;28;20262;-72
2023/12/14 05:23:11;;;;;;;2.13;1.50;;;6.30;99.90;;;;;;5069790;28;20425;-71
2023/12/14 05:25:37;;;;;;;1.70;1.60;;;6.30;99.90;;;;;;5069469;28;20465;-72
2023/12/14 05:28:03;;;;;;;1.80;1.70;;;6.30;99.90;;;;;;5070871;28;20448;-72
2023/12/14 05:30:29;;;;;;;1.43;1.33;;;6.30;99.90;;;;;;5070684;28;20205;-71
2023/12/14 05:32:54;;;;;;;1.90;1.50;;;6.20;99.90;;;;;;5071012;28;20179;-71
2023/12/14 05:35:20;;;;;;;2.00;1.90;;;6.20;99.90;;;;;;5070680;28;20432;-71
2023/12/14 05:37:45;;;;;;;1.93;1.83;;;6.30;99.90;;;;;;5070791;28;20233;-72
2023/12/14 05:40:11;;;;;;;1.77;1.67;;;6.20;99.90;;;;;;5052326;28;20229;-71
2023/12/14 05:42:37;;;;;;;3.10;2.10;;;6.20;99.90;;;;;;5070665;28;20588;-72
2023/12/14 05:45:04;;;;;;;2.20;2.00;;;6.20;99.90;;;;;;5070390;28;20234;-71
2023/12/14 05:47:31;;;;;;;2.50;2.20;;;6.20;99.90;;;;;;5069044;28;20246;-72
2023/12/14 05:49:57;;;;;;;2.50;1.90;;;6.20;99.90;;;;;;5069073;28;20417;-72
2023/12/14 05:52:23;;;;;;;1.40;1.30;;;6.20;99.90;;;;;;5068894;28;20424;-71
2023/12/14 05:54:48;;;;;;;4.30;1.30;;;6.10;99.90;;;;;;5051581;28;20297;-72
2023/12/14 05:57:14;;;;;;;1.57;1.47;;;6.10;99.90;;;;;;5067320;28;20829;-71
2023/12/14 05:59:39;;;;;;;2.53;1.60;;;6.10;99.90;;;;;;5067188;28;20226;-72
2023/12/14 06:02:06;;;;;;;1.50;1.40;;;6.00;99.90;;;;;;5067615;28;20652;-72
2023/12/14 06:04:32;;;;;;;2.37;1.63;;;6.10;99.90;;;;;;5067058;28;20195;-71
2023/12/14 06:06:57;;;;;;;1.40;1.30;;;6.10;99.90;;;;;;5068442;28;20452;-72
2023/12/14 06:09:29;;;;;;;1.20;1.10;;;6.10;99.90;;;;;;5067147;28;20183;-72
2023/12/14 06:11:55;;;;;;;1.37;1.20;;;6.00;99.90;;;;;;5067050;28;20190;-71
2023/12/14 06:14:21;;;;;;;1.20;1.10;;;6.10;99.90;;;;;;5067882;28;20508;-71
2023/12/14 06:16:46;;;;;;;1.47;1.27;;;6.10;99.90;;;;;;5066940;28;20564;-71
2023/12/14 06:19:12;;;;;;;0.80;0.70;;;6.10;99.90;;;;;;5068028;28;20191;-71
2023/12/14 06:21:37;;;;;;;2.37;0.90;;;6.10;99.90;;;;;;5068217;28;20274;-72
2023/12/14 06:24:03;;;;;;;1.80;1.00;;;6.10;99.90;;;;;;5068094;28;20195;-72
2023/12/14 06:26:29;;;;;;;1.40;0.90;;;6.10;99.90;;;;;;5066490;28;20751;-72
2023/12/14 06:28:54;;;;;;;1.37;1.27;;;6.10;99.90;;;;;;5068085;28;20931;-72
2023/12/14 06:31:21;;;;;;;2.33;1.27;;;6.00;99.90;;;;;;5068119;28;20216;-72
2023/12/14 06:33:48;;;;;;;1.40;1.30;;;6.00;99.90;;;;;;5068083;28;20277;-70
2023/12/14 06:36:16;;;;;;;1.70;1.60;;;6.00;99.90;;;;;;5067200;28;20858;-70
2023/12/14 06:38:42;;;;;;;1.60;1.50;;;6.00;99.90;;;;;;5066747;28;20434;-72
2023/12/14 06:41:08;;;;;;;1.43;1.33;;;6.00;99.90;;;;;;5068575;28;20504;-71
2023/12/14 06:43:34;;;;;;;3.00;1.50;;;6.00;99.90;;;;;;5068262;28;20661;-71
2023/12/14 06:46:00;;;;;;;1.30;1.20;;;6.00;99.90;;;;;;5049420;28;20492;-71
2023/12/14 06:48:25;;;;;;;1.30;1.20;;;6.10;99.90;;;;;;5067853;28;21246;-72
2023/12/14 06:50:54;;;;;;;1.00;0.90;;;6.10;99.90;;;;;;5066971;28;20191;-72
2023/12/14 06:53:20;;;;;;;1.13;0.63;;;6.10;99.90;;;;;;5051009;28;20252;-71
2023/12/14 06:55:45;;;;;;;1.00;0.63;;;6.10;99.90;;;;;;5013349;28;1077995;-72
2023/12/14 06:58:11;;;;;;;1.10;0.80;;;6.10;99.90;;;;;;5050937;28;20686;-71
2023/12/14 07:00:37;;;;;;;1.80;0.80;;;6.00;99.90;;;;;;5069227;28;20202;-72
2023/12/14 07:03:03;;;;;;;0.87;0.60;;;6.10;99.90;;;;;;5067673;28;20429;-71
2023/12/14 07:05:29;;;;;;;1.43;0.60;;;6.10;99.90;;;;;;5068959;28;20471;-72
2023/12/14 07:07:56;;;;;;;2.83;1.00;;;6.10;99.90;;;;;;5068937;28;20665;-70
2023/12/14 07:10:22;;;;;;;0.80;0.80;;;6.20;99.90;;;;;;5067858;28;20920;-71
2023/12/14 07:12:47;;;;;;;2.00;0.80;;;6.10;99.90;;;;;;5068939;28;20425;-71
2023/12/14 07:15:13;;;;;;;0.80;0.63;;;6.10;99.90;;;;;;5068933;28;20429;-72
2023/12/14 07:17:39;;;;;;;0.70;0.70;;;6.10;99.90;;;;;;5068648;28;20650;-72
2023/12/14 07:20:06;;;;;;;2.60;0.80;;;6.10;99.90;;;;;;5068698;28;20187;-71
2023/12/14 07:22:32;;;;;;;2.77;0.63;;;6.10;99.90;;;;;;5066862;28;20474;-72
2023/12/14 07:24:57;;;;;;;2.07;1.00;;;6.10;99.90;;;;;;5067724;28;20851;-72
2023/12/14 07:27:23;;;;;;;1.77;1.67;;;6.20;99.90;;;;;;5068380;28;20477;-72
2023/12/14 07:29:49;;;;;;;2.13;1.93;;;6.20;99.90;;;;;;5068558;28;20266;-71
2023/12/14 07:32:14;;;;;;;1.00;0.90;;;6.20;99.90;;;;;;5068597;28;20183;-71
2023/12/14 07:34:40;;;;;;;1.57;1.27;;;6.20;99.90;;;;;;5067078;28;20234;-71
2023/12/14 07:37:06;;;;;;;4.40;1.50;;;6.30;99.90;;;;;;5066908;28;20229;-72
2023/12/14 07:39:31;;;;;;;1.60;1.30;;;6.30;99.90;;;;;;5068573;28;20614;-71
2023/12/14 07:41:57;;;;;;;1.70;1.60;;;6.30;99.90;;;;;;5066953;28;20649;-71
2023/12/14 07:44:25;;;;;;;1.73;1.63;;;6.30;99.90;;;;;;5050571;28;20436;-71
2023/12/14 07:46:51;;;;;;;2.00;1.90;;;6.30;99.90;;;;;;5067799;28;20254;-71
2023/12/14 07:49:20;;;;;;;1.80;1.30;;;6.30;99.90;;;;;;5067725;28;20786;-71
2023/12/14 07:51:46;;;;;;;1.30;1.20;;;6.30;99.90;;;;;;5067935;28;20444;-71
2023/12/14 07:54:12;;;;;;;2.13;2.03;;;6.30;99.90;;;;;;5066268;28;20421;-71
2023/12/14 07:56:37;;;;;;;1.67;1.37;;;6.40;99.90;;;;;;5067811;28;20506;-70
2023/12/14 07:59:06;;;;;;;1.50;1.40;;;6.30;99.90;;;;;;5066382;28;20190;-72
2023/12/14 08:01:32;;;;;;;1.13;1.03;;;6.40;99.90;;;;;;5067731;28;20183;-70
2023/12/14 08:03:57;;;;;;;1.30;1.20;;;6.40;99.90;;;;;;5066236;28;20433;-70
2023/12/14 08:06:23;;;;;;;1.47;1.33;;;6.40;99.90;;;;;;5067538;28;21090;-70
2023/12/14 08:08:49;;;;;;;1.60;1.50;;;6.40;99.90;;;;;;5066376;28;20274;-71
2023/12/14 08:11:14;;;;;;;1.60;1.50;;;6.20;99.90;;;;;;5065981;28;20600;-70
2023/12/14 08:13:40;;;;;;;1.90;1.80;;;6.30;99.90;;;;;;5067629;28;20236;-72
2023/12/14 08:16:07;;;;;;;2.70;1.97;;;6.30;99.90;;;;;;5067295;28;20228;-72
2023/12/14 08:18:33;;;;;;;2.07;1.80;;;6.30;99.90;;;;;;5067314;28;20218;-71
2023/12/14 08:20:58;;;;;;;1.80;1.70;;;6.30;99.90;;;;;;5067424;28;20456;-72
2023/12/14 08:23:27;;;;;;;1.37;1.20;;;6.30;99.90;;;;;;5067522;28;20187;-69
2023/12/14 08:25:56;;;;;;;2.43;1.57;;;6.30;99.90;;;;;;5067486;28;20905;-70
2023/12/14 08:28:22;;;;;;;1.43;1.07;;;6.30;99.90;;;;;;5066044;28;20459;-70
2023/12/14 08:30:48;;;;;;;1.70;1.60;;;6.40;99.90;;;;;;5067348;28;20417;-70
2023/12/14 08:33:14;;;;;;;2.63;1.67;;;6.40;99.90;;;;;;5067416;28;20483;-72
2023/12/14 08:35:39;;;;;;;1.67;1.57;;;6.50;99.90;;;;;;5065845;28;20204;-71
2023/12/14 08:38:05;;;;;;;1.40;1.30;;;6.50;99.90;;;;;;5067012;28;20681;-72
2023/12/14 08:40:30;;;;;;;1.60;1.50;;;6.40;99.90;;;;;;5048882;28;20186;-71
2023/12/14 08:42:56;;;;;;;1.97;1.63;;;6.50;99.90;;;;;;5065777;28;20194;-71
2023/12/14 08:45:22;;;;;;;2.80;1.70;;;6.40;99.90;;;;;;5067057;28;20202;-70
2023/12/14 08:47:48;;;;;;;1.93;1.83;;;6.50;99.90;;;;;;5065627;28;20454;-69
2023/12/14 08:50:13;;;;;;;2.00;1.90;;;6.50;99.90;;;;;;5065874;28;20238;-70
2023/12/14 08:52:39;;;;;;;2.47;2.27;;;6.60;99.90;;;;;;5067265;28;20179;-72
2023/12/14 08:55:05;;;;;;;3.30;3.10;;;6.70;99.90;;;;;;5065646;28;20576;-72
2023/12/14 08:57:31;;;;;;;3.20;2.97;;;6.70;99.90;;;;;;5067196;28;20715;-72
2023/12/14 08:59:57;;;;;;;3.33;3.13;;;6.70;99.90;;;;;;5065720;28;20413;-71
2023/12/14 09:02:22;;;;;;;2.80;2.60;;;6.80;99.90;;;;;;5065502;28;20305;-71
2023/12/14 09:04:48;;;;;;;3.03;2.53;;;6.90;99.90;;;;;;5065486;28;20175;-71
2023/12/14 09:07:14;;;;;;;2.93;2.73;;;6.90;99.90;;;;;;5065723;28;20203;-72
2023/12/14 09:09:39;;;;;;;4.93;2.63;;;7.10;99.90;;;;;;5067049;28;20185;-71
2023/12/14 09:12:08;;;;;;;2.80;2.07;;;7.10;99.90;;;;;;5067072;28;20555;-71
2023/12/14 09:14:33;;;;;;;4.50;2.50;;;7.20;99.90;;;;;;5065731;28;20553;-73
2023/12/14 09:16:59;;;;;;;6.70;2.70;;;7.40;99.90;;;;;;5065823;28;20440;-71
2023/12/14 09:19:24;;;;;;;4.73;3.60;;;7.50;99.90;;;;;;5065860;28;20442;-71
2023/12/14 09:21:50;;;;;;;1.53;1.43;;;7.60;99.90;;;;;;5067107;28;20179;-72
2023/12/14 09:24:16;;;;;;;1.53;1.43;;;7.50;99.90;;;;;;5067090;28;20186;-72
2023/12/14 09:26:41;;;;;;;1.50;1.40;;;7.40;99.90;;;;;;5065759;28;20222;-71
2023/12/14 09:29:07;;;;;;;1.77;1.50;;;7.40;99.90;;;;;;5065939;28;20187;-72
2023/12/14 09:31:32;;;;;;;1.20;1.10;;;7.40;99.90;;;;;;5067635;28;20191;-71
2023/12/14 09:33:58;;;;;;;1.90;1.47;;;7.30;99.90;;;;;;5066177;28;20187;-72
2023/12/14 09:36:24;;;;;;;4.13;1.47;;;7.40;99.90;;;;;;5067716;28;20208;-72
2023/12/14 09:38:49;;;;;;;2.03;1.50;;;7.40;99.90;;;;;;5067693;28;20206;-72
2023/12/14 09:41:15;;;;;;;2.07;1.70;;;7.40;99.90;;;;;;5066087;28;20194;-71
2023/12/14 09:43:40;;;;;;;2.07;1.80;;;7.50;99.90;;;;;;5067293;28;20191;-71
2023/12/14 09:46:07;;;;;;;2.33;1.50;;;7.50;99.90;;;;;;5065730;28;20401;-72
2023/12/14 09:48:33;;;;;;;1.50;1.40;;;7.60;99.90;;;;;;5067121;28;20191;-72
2023/12/14 09:50:59;;;;;;;1.83;1.50;;;7.60;99.90;;;;;;5070995;28;20463;-72
2023/12/14 09:53:24;;;;;;;1.60;1.50;;;7.60;99.90;;;;;;5069424;28;20429;-72
2023/12/14 09:55:50;;;;;;;1.70;1.40;;;7.70;99.90;;;;;;5070961;28;20281;-74
2023/12/14 09:58:16;;;;;;;3.10;1.70;;;7.80;99.90;;;;;;5070879;28;20207;-72
2023/12/14 10:00:43;;;;;;;2.43;1.67;;;7.90;99.90;;;;;;5070405;28;20294;-72
2023/12/14 10:03:23;;;;;;;2.03;1.53;;;8.00;99.90;;;;;;5068555;28;20273;-71
2023/12/14 10:05:49;;;;;;;2.27;1.70;;;8.10;99.90;;;;;;5070006;28;20466;-72
2023/12/14 10:08:16;;;;;;;2.00;1.30;;;8.30;99.90;;;;;;5068803;28;20437;-72
2023/12/14 10:10:43;;;;;;;1.93;1.20;;;8.60;99.90;;;;;;5070166;28;20422;-72
2023/12/14 10:13:09;;;;;;;1.70;1.60;;;8.90;99.90;;;;;;5069996;28;20501;-72
2023/12/14 10:15:46;;;;;;;2.03;1.50;;;8.90;99.90;;;;;;5070216;28;20921;-72
2023/12/14 10:18:12;;;;;;;1.50;1.40;;;8.80;99.90;;;;;;5068945;28;20217;-72
2023/12/14 10:20:38;;;;;;;1.50;1.40;;;8.70;99.90;;;;;;5074585;28;20454;-71
2023/12/14 10:23:06;;;;;;;2.60;2.00;;;8.60;99.90;;;;;;5071585;28;21026;-71
2023/12/14 10:25:32;;;;;;;3.93;1.63;;;8.40;99.90;;;;;;5069872;28;20453;-72
2023/12/14 10:27:59;;;;;;;2.40;1.63;;;8.20;99.90;;;;;;5070078;28;20446;-72
2023/12/14 10:30:27;;;;;;;2.30;1.67;;;8.10;99.90;;;;;;5069506;28;20418;-72
2023/12/14 10:32:53;;;;;;;3.10;1.70;;;8.10;99.90;;;;;;5070370;28;20419;-71
2023/12/14 10:35:21;;;;;;;3.70;2.40;;;8.00;99.90;;;;;;5069911;28;20454;-72
2023/12/14 10:37:52;;;;;;;4.20;2.13;;;8.00;99.90;;;;;;5069377;28;20450;-72
2023/12/14 10:40:17;;;;;;;2.33;2.10;;;8.00;99.90;;;;;;5069363;28;20410;-71
2023/12/14 10:42:44;;;;;;;5.30;3.40;;;8.00;99.90;;;;;;5069258;28;20461;-72
2023/12/14 10:45:13;;;;;;;2.40;2.20;;;8.00;99.90;;;;;;5069378;28;20212;-71
2023/12/14 10:47:43;;;;;;;2.23;2.03;;;7.90;99.90;;;;;;5069102;28;20448;-71
2023/12/14 10:50:11;;;;;;;3.60;2.10;;;7.80;99.90;;;;;;5067659;28;20417;-71
2023/12/14 10:52:40;;;;;;;1.40;1.30;;;7.80;99.90;;;;;;5067669;28;20429;-70
2023/12/14 10:55:28;;;;;;;1.70;1.60;;;7.80;99.90;;;;;;5068958;28;20448;-71
2023/12/14 10:57:53;;;;;;;2.17;1.90;;;7.80;99.90;;;;;;5066698;28;20437;-71
2023/12/14 11:00:19;;;;;;;5.80;1.80;;;7.80;99.90;;;;;;5067809;28;20763;-69
2023/12/14 11:02:48;;;;;;;1.70;1.60;;;7.80;99.90;;;;;;5069427;28;20220;-72
2023/12/14 11:05:16;;;;;;;2.40;2.20;;;7.90;99.90;;;;;;5069620;28;20232;-72
2023/12/14 11:07:54;;;;;;;3.10;2.23;;;8.00;99.90;;;;;;5067680;28;20437;-73
2023/12/14 11:10:40;;;;;;;2.70;2.50;;;8.10;99.90;;;;;;5068808;28;20420;-72
2023/12/14 11:13:11;;;;;;;2.87;2.67;;;8.20;99.90;;;;;;5069457;28;20925;-72
2023/12/14 11:15:37;;;;;;;2.90;2.70;;;8.40;99.90;;;;;;5069634;28;20432;-70
2023/12/14 11:18:12;;;;;;;3.47;2.80;;;8.50;99.90;;;;;;5068385;28;20855;-71
2023/12/14 11:20:56;;;;;;;5.20;3.60;;;8.70;99.90;;;;;;5068485;28;20420;-72
2023/12/14 11:23:28;;;;;;;7.63;3.93;;;8.70;99.90;;;;;;5068520;28;20422;-71
2023/12/14 11:26:00;;;;;;;3.50;3.20;;;8.90;99.90;;;;;;5068405;28;20892;-71
2023/12/14 11:28:26;;;;;;;8.00;3.83;;;9.10;99.90;;;;;;5068314;28;20406;-71
2023/12/14 11:30:52;;;;;;;5.90;3.00;;;9.00;99.90;;;;;;5066732;28;20420;-71
2023/12/14 11:33:18;;;;;;;3.50;2.70;;;8.80;99.90;;;;;;5066809;28;20484;-72
2023/12/14 11:35:43;;;;;;;2.40;2.23;;;8.70;99.90;;;;;;5068339;28;20193;-71
2023/12/14 11:38:15;;;;;;;2.33;1.30;;;8.50;99.90;;;;;;5068008;28;20755;-70
2023/12/14 11:40:42;;;;;;;2.43;1.47;;;9.10;99.90;;;;;;5066343;28;20846;-71
2023/12/14 11:43:09;;;;;;;20.50;9.00;;;10.70;99.90;;;;;;5068101;28;20424;-71
2023/12/14 11:45:39;;;;;;;2.00;1.50;;;11.70;99.90;;;;;;5067881;28;21127;-73
2023/12/14 11:48:10;;;;;;;1.43;0.90;;;11.80;99.90;;;;;;5068171;28;20943;-71
2023/12/14 11:50:36;;;;;;;1.83;1.00;;;12.30;99.90;;;;;;5066361;28;20946;-71
2023/12/14 11:53:03;;;;;;;1.30;0.77;;;12.70;99.90;;;;;;5066842;28;20446;-72
2023/12/14 11:55:32;;;;;;;1.90;0.93;;;12.70;99.90;;;;;;5067837;28;20463;-72
2023/12/14 11:57:58;;;;;;;1.70;1.03;;;12.50;99.90;;;;;;5065849;28;20445;-72
2023/12/14 12:00:26;;;;;;;1.10;0.90;;;12.20;99.90;;;;;;5067005;28;20427;-72
2023/12/14 12:02:52;;;;;;;1.40;0.87;;;11.70;99.90;;;;;;5066859;28;20474;-72
2023/12/14 12:05:19;;;;;;;3.20;1.27;;;11.30;99.90;;;;;;5051234;28;20475;-70
2023/12/14 12:07:45;;;;;;;2.13;1.57;;;11.00;99.90;;;;;;5066750;28;20788;-72
2023/12/14 12:10:11;;;;;;;4.80;1.60;;;10.80;99.90;;;;;;5068252;28;20951;-72
2023/12/14 12:12:37;;;;;;;2.53;1.80;;;10.70;99.90;;;;;;5066169;28;20429;-72
2023/12/14 12:15:04;;;;;;;3.00;1.93;;;10.50;99.90;;;;;;5066659;28;20429;-72
2023/12/14 12:17:32;;;;;;;1.90;1.57;;;10.30;99.90;;;;;;5067943;28;20562;-72
2023/12/14 12:19:57;;;;;;;3.53;1.77;;;10.20;99.90;;;;;;5068184;28;20427;-71
2023/12/14 12:22:23;;;;;;;3.30;1.97;;;10.20;99.90;;;;;;5068155;28;20420;-71
2023/12/14 12:24:49;;;;;;;1.70;1.40;;;10.20;99.90;;;;;;5068023;28;20193;-71
2023/12/14 12:27:14;;;;;;;2.03;1.83;;;10.10;99.90;;;;;;5066405;28;20687;-71
2023/12/14 12:29:40;;;;;;;1.97;1.77;;;10.00;99.90;;;;;;5066447;28;20188;-71
2023/12/14 12:32:05;;;;;;;3.10;1.70;;;9.90;99.90;;;;;;5066611;28;20670;-71
2023/12/14 12:34:31;;;;;;;1.97;1.63;;;9.70;99.90;;;;;;5067820;28;20185;-71
2023/12/14 12:36:57;;;;;;;2.83;2.07;;;9.50;99.90;;;;;;5067052;28;20209;-72
2023/12/14 12:39:23;;;;;;;2.37;2.27;;;9.30;99.90;;;;;;5067778;28;20252;-72
2023/12/14 12:41:48;;;;;;;3.60;2.30;;;9.30;99.90;;;;;;5067585;28;20520;-72
2023/12/14 12:44:14;;;;;;;2.33;2.13;;;9.20;99.90;;;;;;5067395;28;20568;-72
2023/12/14 12:46:40;;;;;;;2.20;2.00;;;9.10;99.90;;;;;;5065835;28;20300;-71
2023/12/14 12:49:06;;;;;;;3.10;2.70;;;9.00;99.90;;;;;;5067404;28;20181;-71
2023/12/14 12:51:32;;;;;;;2.27;2.07;;;9.00;99.90;;;;;;5066024;28;20417;-70